Time;durP1;ratioP1;P1;durP2;ratioP2;P2;SDS_P1;SDS_P2;PMS_P1;PMS_P2;Temp;Humidity;BMP_temperature;BMP_pressure;BME280_temperature;BME280_humidity;BME280_pressure;Samples;Min_cycle;Max_cycle;Signal;HPM_P1;HPM_P2
2023/04/10 00:01:04;;;;;;;61.65;39.08;;;8.30;99.90;;;;;;5149577;27;20050;-68
2023/04/10 00:03:30;;;;;;;61.53;39.45;;;8.20;99.90;;;;;;5134859;27;20995;-70
2023/04/10 00:05:56;;;;;;;65.00;40.55;;;8.20;99.90;;;;;;5116091;27;20035;-69
2023/04/10 00:08:25;;;;;;;60.28;37.50;;;8.20;99.90;;;;;;5115870;27;20053;-68
2023/04/10 00:10:53;;;;;;;57.13;37.13;;;8.20;99.90;;;;;;5115878;27;20069;-66
2023/04/10 00:13:19;;;;;;;59.65;37.55;;;8.20;99.90;;;;;;5116216;27;20678;-67
2023/04/10 00:15:45;;;;;;;59.72;38.17;;;8.20;99.90;;;;;;5135962;27;20042;-70
2023/04/10 00:18:11;;;;;;;64.05;39.53;;;8.10;99.90;;;;;;5118193;27;20046;-65
2023/04/10 00:20:37;;;;;;;62.08;39.40;;;8.10;99.90;;;;;;5115889;27;20122;-67
2023/04/10 00:23:02;;;;;;;63.97;41.00;;;8.10;99.90;;;;;;5108703;27;20228;-66
2023/04/10 00:25:28;;;;;;;64.68;39.80;;;8.10;99.90;;;;;;5155143;27;20117;-68
2023/04/10 00:27:54;;;;;;;61.83;39.03;;;8.10;99.90;;;;;;5136264;27;20043;-68
2023/04/10 00:30:20;;;;;;;62.53;39.95;;;8.10;99.90;;;;;;5115549;27;20122;-70
2023/04/10 00:32:46;;;;;;;64.57;39.83;;;8.10;99.90;;;;;;5115131;27;20035;-66
2023/04/10 00:35:12;;;;;;;66.50;39.33;;;8.00;99.90;;;;;;5118176;27;20137;-65
2023/04/10 00:37:37;;;;;;;58.35;37.55;;;8.00;99.90;;;;;;5118184;27;20412;-67
2023/04/10 00:40:05;;;;;;;63.55;40.03;;;8.00;99.90;;;;;;5112726;27;20046;-67
2023/04/10 00:42:31;;;;;;;62.85;39.17;;;8.00;99.90;;;;;;5140511;27;20050;-69
2023/04/10 00:44:57;;;;;;;57.20;37.22;;;8.00;99.90;;;;;;5113437;27;20135;-64
2023/04/10 00:47:23;;;;;;;55.88;38.20;;;7.90;99.90;;;;;;5132757;27;20043;-66
2023/04/10 00:49:49;;;;;;;60.05;39.80;;;7.90;99.90;;;;;;5111156;27;20046;-67
2023/04/10 00:52:15;;;;;;;57.17;37.03;;;7.90;99.90;;;;;;5110283;27;20421;-70
2023/04/10 00:54:41;;;;;;;55.40;35.88;;;7.90;99.90;;;;;;5115553;27;20408;-68
2023/04/10 00:57:06;;;;;;;57.78;36.53;;;7.80;99.90;;;;;;5117387;27;20035;-67
2023/04/10 00:59:33;;;;;;;55.75;35.88;;;7.80;99.90;;;;;;5120244;27;20145;-67
2023/04/10 01:01:59;;;;;;;59.85;36.90;;;7.80;99.90;;;;;;5115944;27;20389;-67
2023/04/10 01:04:27;;;;;;;54.20;37.05;;;7.80;99.90;;;;;;5117216;27;20050;-66
2023/04/10 01:06:59;;;;;;;54.88;36.58;;;7.80;99.90;;;;;;5096025;27;20502;-66
2023/04/10 01:09:34;;;;;;;57.45;34.58;;;7.80;99.90;;;;;;5112376;27;20051;-69
2023/04/10 01:12:08;;;;;;;57.92;35.45;;;7.80;99.90;;;;;;5111560;27;20035;-68
2023/04/10 01:15:05;;;;;;;51.95;34.95;;;7.70;99.90;;;;;;5129571;27;20042;-67
2023/04/10 01:17:44;;;;;;;52.83;34.65;;;7.80;99.90;;;;;;5108575;27;20043;-66
2023/04/10 01:20:19;;;;;;;55.35;35.90;;;7.70;99.90;;;;;;5115888;27;20646;-67
2023/04/10 01:23:03;;;;;;;56.63;35.40;;;7.70;99.90;;;;;;5114350;27;20042;-66
2023/04/10 01:25:47;;;;;;;54.08;35.33;;;7.70;99.90;;;;;;5118094;27;20047;-66
2023/04/10 01:28:19;;;;;;;55.05;35.70;;;7.70;99.90;;;;;;5140858;27;20048;-68
2023/04/10 01:30:47;;;;;;;55.20;35.85;;;7.70;99.90;;;;;;5117681;27;20050;-67
2023/04/10 01:33:17;;;;;;;56.95;37.05;;;7.60;99.90;;;;;;5126527;27;20047;-68
2023/04/10 01:35:51;;;;;;;59.55;37.17;;;7.60;99.90;;;;;;5114865;27;20171;-68
2023/04/10 01:38:19;;;;;;;59.25;36.75;;;7.60;99.90;;;;;;5142257;27;20054;-65
2023/04/10 01:40:50;;;;;;;59.90;37.90;;;7.60;99.90;;;;;;5112353;27;20421;-70
2023/04/10 01:43:17;;;;;;;62.28;37.78;;;7.60;99.90;;;;;;5113724;27;20400;-67
2023/04/10 01:45:45;;;;;;;64.28;39.40;;;7.50;99.90;;;;;;5113092;27;20151;-69
2023/04/10 01:48:11;;;;;;;59.65;38.53;;;7.50;99.90;;;;;;5114220;27;20054;-66
2023/04/10 01:50:37;;;;;;;62.35;39.38;;;7.50;99.90;;;;;;5117423;27;20026;-66
2023/04/10 01:53:05;;;;;;;62.95;39.40;;;7.50;99.90;;;;;;5114134;27;20079;-67
2023/04/10 01:55:32;;;;;;;72.15;42.85;;;7.40;99.90;;;;;;5156813;27;20478;-65
2023/04/10 01:58:00;;;;;;;91.03;48.15;;;7.40;99.90;;;;;;5113736;27;20042;-65
2023/04/10 02:00:26;;;;;;;109.72;54.47;;;7.40;99.90;;;;;;5151845;27;20047;-70
2023/04/10 02:02:52;;;;;;;118.63;58.35;;;7.30;99.90;;;;;;5113918;27;20043;-67
2023/04/10 02:05:18;;;;;;;129.85;65.13;;;7.30;99.90;;;;;;5113829;27;20069;-68
2023/04/10 02:08:16;;;;;;;104.20;58.97;;;7.30;99.90;;;;;;5113560;27;20028;-64
2023/04/10 02:10:59;;;;;;;102.88;54.20;;;7.30;99.90;;;;;;5096700;27;20031;-66
2023/04/10 02:13:28;;;;;;;86.20;48.78;;;7.20;99.90;;;;;;5111592;27;20053;-69
2023/04/10 02:15:56;;;;;;;66.50;41.80;;;7.20;99.90;;;;;;5110531;27;20039;-70
2023/04/10 02:18:23;;;;;;;74.15;45.75;;;7.10;99.90;;;;;;5113669;27;20054;-68
2023/04/10 02:20:49;;;;;;;89.22;52.17;;;7.10;99.90;;;;;;5113406;27;20049;-68
2023/04/10 02:23:16;;;;;;;84.78;48.47;;;7.10;99.90;;;;;;5117640;27;20126;-65
2023/04/10 02:25:42;;;;;;;88.80;49.30;;;7.00;99.90;;;;;;5134050;27;20401;-64
2023/04/10 02:28:08;;;;;;;110.88;56.88;;;7.00;99.90;;;;;;5123931;27;20043;-65
2023/04/10 02:30:33;;;;;;;118.00;59.72;;;7.00;99.90;;;;;;5113367;27;20039;-70
2023/04/10 02:32:59;;;;;;;96.03;52.88;;;7.00;99.90;;;;;;5116713;27;20035;-66
2023/04/10 02:35:26;;;;;;;99.43;55.28;;;7.00;99.90;;;;;;5113565;27;20055;-65
2023/04/10 02:37:51;;;;;;;77.75;45.45;;;7.00;99.90;;;;;;5095853;27;20111;-68
2023/04/10 02:40:17;;;;;;;92.63;50.72;;;7.10;99.90;;;;;;5113462;27;20434;-69
2023/04/10 02:42:43;;;;;;;60.80;39.42;;;7.10;99.90;;;;;;5095912;27;20104;-70
2023/04/10 02:45:09;;;;;;;95.68;52.17;;;7.10;99.90;;;;;;5112908;27;20456;-70
2023/04/10 02:47:35;;;;;;;104.80;53.38;;;7.10;99.90;;;;;;5113332;27;20406;-71
2023/04/10 02:50:00;;;;;;;121.43;58.55;;;7.10;99.90;;;;;;5131882;27;20046;-70
2023/04/10 02:52:26;;;;;;;154.90;68.18;;;7.10;99.90;;;;;;5113014;27;20500;-68
2023/04/10 02:54:52;;;;;;;135.25;60.05;;;7.10;99.90;;;;;;5111942;27;20100;-64
2023/04/10 02:57:18;;;;;;;154.80;66.65;;;7.10;99.90;;;;;;5112998;27;22078;-68
2023/04/10 02:59:43;;;;;;;168.98;69.60;;;7.10;99.90;;;;;;5112927;27;20431;-70
2023/04/10 03:02:09;;;;;;;194.52;77.57;;;7.20;99.90;;;;;;5112278;27;20509;-65
2023/04/10 03:04:35;;;;;;;156.55;64.82;;;7.10;99.90;;;;;;5131219;27;20473;-69
2023/04/10 03:07:01;;;;;;;117.85;51.97;;;7.10;99.90;;;;;;5112265;27;20047;-65
2023/04/10 03:09:26;;;;;;;183.02;72.68;;;7.10;99.90;;;;;;5116002;27;20039;-67
2023/04/10 03:11:52;;;;;;;119.18;52.72;;;7.10;99.90;;;;;;5133422;27;20041;-64
2023/04/10 03:14:18;;;;;;;87.47;45.70;;;7.10;99.90;;;;;;5133041;27;20156;-65
2023/04/10 03:16:44;;;;;;;90.03;46.35;;;7.10;99.90;;;;;;5117838;27;20114;-67
2023/04/10 03:19:11;;;;;;;97.38;49.65;;;7.10;99.90;;;;;;5094354;27;20504;-68
2023/04/10 03:21:37;;;;;;;104.95;49.20;;;7.10;99.90;;;;;;5110024;27;20046;-66
2023/04/10 03:24:03;;;;;;;113.85;52.58;;;7.10;99.90;;;;;;5113020;27;20043;-65
2023/04/10 03:26:28;;;;;;;84.68;46.00;;;7.20;99.90;;;;;;5112120;28;20473;-66
2023/04/10 03:28:54;;;;;;;69.45;39.75;;;7.10;99.90;;;;;;5112571;28;20046;-67
2023/04/10 03:31:20;;;;;;;80.20;42.92;;;7.10;99.90;;;;;;5112349;27;20482;-65
2023/04/10 03:33:45;;;;;;;86.13;46.40;;;7.10;99.90;;;;;;5112410;28;20512;-64
2023/04/10 03:36:11;;;;;;;73.78;44.47;;;7.10;99.90;;;;;;5112442;27;20050;-68
2023/04/10 03:38:37;;;;;;;62.05;38.35;;;7.20;99.90;;;;;;5098691;27;20401;-64
2023/04/10 03:41:02;;;;;;;58.40;35.80;;;7.20;99.90;;;;;;5124456;28;20043;-70
2023/04/10 03:43:30;;;;;;;53.00;33.90;;;7.20;99.90;;;;;;5112261;28;20477;-65
2023/04/10 03:45:55;;;;;;;50.63;32.40;;;7.20;99.90;;;;;;5112577;28;20046;-67
2023/04/10 03:48:21;;;;;;;48.88;32.63;;;7.20;99.90;;;;;;5112059;27;20126;-68
2023/04/10 03:50:47;;;;;;;47.78;31.77;;;7.20;99.90;;;;;;5112379;28;20046;-68
2023/04/10 03:53:12;;;;;;;48.20;32.13;;;7.20;99.90;;;;;;5111990;27;20053;-68
2023/04/10 03:55:38;;;;;;;47.85;32.00;;;7.30;99.90;;;;;;5112360;28;20199;-68
2023/04/10 03:58:04;;;;;;;45.65;30.65;;;7.30;99.90;;;;;;5095082;28;20150;-65
2023/04/10 04:00:30;;;;;;;44.25;30.63;;;7.30;99.90;;;;;;5112359;27;20043;-67
2023/04/10 04:02:57;;;;;;;45.85;30.25;;;7.30;99.90;;;;;;5112380;28;20053;-69
2023/04/10 04:05:23;;;;;;;45.83;30.65;;;7.40;99.90;;;;;;5112335;28;20087;-67
2023/04/10 04:07:49;;;;;;;40.88;29.67;;;7.40;99.90;;;;;;5112153;27;20455;-65
2023/04/10 04:10:15;;;;;;;46.95;31.98;;;7.40;99.90;;;;;;5112186;27;20047;-70
2023/04/10 04:12:40;;;;;;;48.90;33.45;;;7.40;99.90;;;;;;5130551;27;20035;-66
2023/04/10 04:15:06;;;;;;;61.35;37.35;;;7.40;99.90;;;;;;5116929;28;20080;-67
2023/04/10 04:17:32;;;;;;;63.25;39.50;;;7.40;99.90;;;;;;5111899;27;20070;-68
2023/04/10 04:19:58;;;;;;;70.97;40.85;;;7.40;99.90;;;;;;5111985;28;20297;-68
2023/04/10 04:22:23;;;;;;;65.85;38.40;;;7.40;99.90;;;;;;5112333;28;20503;-67
2023/04/10 04:24:49;;;;;;;56.67;35.92;;;7.40;99.90;;;;;;5112054;27;20045;-68
2023/04/10 04:27:15;;;;;;;57.50;36.55;;;7.40;99.90;;;;;;5111932;28;20111;-64
2023/04/10 04:29:41;;;;;;;57.92;35.40;;;7.40;99.90;;;;;;5111804;28;20038;-65
2023/04/10 04:32:07;;;;;;;52.80;33.60;;;7.40;99.90;;;;;;5130731;27;20038;-70
2023/04/10 04:34:32;;;;;;;46.58;29.90;;;7.40;99.90;;;;;;5111974;28;20031;-67
2023/04/10 04:36:58;;;;;;;46.97;31.05;;;7.40;99.90;;;;;;5112083;27;20370;-67
2023/04/10 04:39:24;;;;;;;56.83;35.08;;;7.40;99.90;;;;;;5115669;27;20079;-66
2023/04/10 04:41:49;;;;;;;51.03;32.65;;;7.40;99.90;;;;;;5115089;27;20540;-69
2023/04/10 04:44:18;;;;;;;46.75;31.10;;;7.40;99.90;;;;;;5115492;27;20031;-68
2023/04/10 04:46:43;;;;;;;45.38;29.52;;;7.50;99.90;;;;;;5115344;27;20122;-66
2023/04/10 04:49:09;;;;;;;43.28;27.40;;;7.40;99.90;;;;;;5116836;27;20122;-69
2023/04/10 04:51:36;;;;;;;46.85;30.40;;;7.50;99.90;;;;;;5114920;27;20054;-67
2023/04/10 04:54:03;;;;;;;41.78;27.80;;;7.50;99.90;;;;;;5114938;27;20031;-67
2023/04/10 04:56:28;;;;;;;43.22;27.55;;;7.50;99.90;;;;;;5149725;27;20070;-67
2023/04/10 04:58:54;;;;;;;42.17;27.65;;;7.50;99.90;;;;;;5115168;27;20070;-69
2023/04/10 05:01:20;;;;;;;37.88;25.67;;;7.50;99.90;;;;;;5115580;27;20166;-68
2023/04/10 05:03:45;;;;;;;35.30;25.55;;;7.50;99.90;;;;;;5114865;27;20146;-66
2023/04/10 05:06:11;;;;;;;35.95;25.30;;;7.50;99.90;;;;;;5098031;27;20107;-65
2023/04/10 05:08:36;;;;;;;35.90;25.45;;;7.50;99.90;;;;;;5115214;27;20145;-65
2023/04/10 05:11:02;;;;;;;35.42;24.67;;;7.50;99.90;;;;;;5115162;27;20092;-65
2023/04/10 05:13:28;;;;;;;35.13;24.45;;;7.40;99.90;;;;;;5114617;27;20032;-67
2023/04/10 05:15:54;;;;;;;38.33;24.50;;;7.50;99.90;;;;;;5107381;27;20053;-72
2023/04/10 05:18:22;;;;;;;31.70;23.10;;;7.50;99.90;;;;;;5122256;27;20043;-67
2023/04/10 05:20:48;;;;;;;32.90;23.27;;;7.50;99.90;;;;;;5113986;27;20116;-66
2023/04/10 05:23:15;;;;;;;32.70;23.00;;;7.50;99.90;;;;;;5115682;27;20660;-68
2023/04/10 05:25:41;;;;;;;31.98;22.67;;;7.50;99.90;;;;;;5134950;27;20393;-66
2023/04/10 05:28:06;;;;;;;30.95;21.80;;;7.50;99.90;;;;;;5114645;27;20042;-66
2023/04/10 05:30:32;;;;;;;34.38;21.90;;;7.50;99.90;;;;;;5114892;27;20118;-65
2023/04/10 05:32:58;;;;;;;33.22;21.42;;;7.60;99.90;;;;;;5114792;27;20037;-69
2023/04/10 05:35:23;;;;;;;30.48;21.83;;;7.60;99.90;;;;;;5114206;27;20404;-64
2023/04/10 05:37:49;;;;;;;32.70;21.92;;;7.60;99.90;;;;;;5113609;27;20035;-69
2023/04/10 05:40:15;;;;;;;35.08;22.63;;;7.60;99.90;;;;;;5115013;27;20081;-66
2023/04/10 05:42:40;;;;;;;36.05;24.02;;;7.70;99.90;;;;;;5122587;27;20039;-63
2023/04/10 05:45:07;;;;;;;35.67;22.52;;;7.70;99.90;;;;;;5135074;27;20385;-67
2023/04/10 05:47:32;;;;;;;40.92;25.27;;;7.80;99.90;;;;;;5115222;27;20120;-65
2023/04/10 05:49:58;;;;;;;38.10;23.27;;;7.80;99.90;;;;;;5110850;27;20080;-68
2023/04/10 05:52:24;;;;;;;39.95;24.95;;;7.80;99.90;;;;;;5119016;27;20453;-71
2023/04/10 05:54:50;;;;;;;36.72;23.27;;;7.90;99.90;;;;;;5122763;27;20042;-71
2023/04/10 05:57:16;;;;;;;31.65;21.58;;;7.90;99.90;;;;;;5112768;27;20463;-66
2023/04/10 05:59:42;;;;;;;34.03;22.45;;;8.00;99.90;;;;;;5113047;27;20126;-64
2023/04/10 06:02:08;;;;;;;32.90;22.42;;;8.00;99.90;;;;;;5120461;27;20363;-67
2023/04/10 06:04:34;;;;;;;35.20;22.48;;;8.10;99.90;;;;;;5121193;27;20038;-65
2023/04/10 06:07:00;;;;;;;31.55;22.25;;;8.10;99.90;;;;;;5118310;27;20041;-65
2023/04/10 06:09:25;;;;;;;31.10;20.85;;;8.10;99.90;;;;;;5133664;27;20427;-67
2023/04/10 06:11:52;;;;;;;36.63;22.90;;;8.20;99.90;;;;;;5133819;27;20095;-64
2023/04/10 06:14:19;;;;;;;31.20;21.13;;;8.30;99.90;;;;;;5134320;27;20460;-65
2023/04/10 06:16:45;;;;;;;34.97;22.83;;;8.40;99.90;;;;;;5117149;27;20059;-67
2023/04/10 06:19:11;;;;;;;28.42;19.35;;;8.50;99.90;;;;;;5113853;27;20092;-67
2023/04/10 06:21:36;;;;;;;30.52;19.92;;;8.60;99.90;;;;;;5113671;27;20039;-66
2023/04/10 06:24:02;;;;;;;30.15;19.17;;;8.60;99.90;;;;;;5133256;27;20053;-69
2023/04/10 06:26:28;;;;;;;33.38;19.80;;;8.70;99.90;;;;;;5126496;27;20069;-68
2023/04/10 06:28:53;;;;;;;28.65;20.60;;;8.80;99.90;;;;;;5121784;27;20039;-65
2023/04/10 06:31:20;;;;;;;28.20;19.75;;;8.90;99.90;;;;;;5111841;27;20066;-68
2023/04/10 06:33:49;;;;;;;33.03;21.05;;;8.90;99.90;;;;;;5134626;27;20043;-69
2023/04/10 06:36:16;;;;;;;40.65;22.35;;;8.90;99.90;;;;;;5125794;27;20516;-64
2023/04/10 06:38:41;;;;;;;32.58;20.60;;;8.90;99.90;;;;;;5113650;27;20034;-69
2023/04/10 06:41:07;;;;;;;33.22;21.35;;;9.00;99.90;;;;;;5113912;27;20413;-67
2023/04/10 06:43:34;;;;;;;33.78;21.58;;;9.10;99.90;;;;;;5112078;27;20179;-67
2023/04/10 06:46:00;;;;;;;35.38;21.63;;;9.20;99.90;;;;;;5133588;27;20429;-67
2023/04/10 06:48:25;;;;;;;46.33;24.45;;;9.30;99.90;;;;;;5117237;27;20074;-67
2023/04/10 06:50:51;;;;;;;42.58;23.95;;;9.40;99.90;;;;;;5111458;27;20049;-67
2023/04/10 06:53:17;;;;;;;33.60;21.40;;;9.40;99.90;;;;;;5149107;27;20054;-64
2023/04/10 06:55:42;;;;;;;30.83;20.83;;;9.40;99.90;;;;;;5127513;27;20042;-67
2023/04/10 06:58:08;;;;;;;31.48;21.95;;;9.40;99.90;;;;;;5143139;27;20053;-67
2023/04/10 07:00:34;;;;;;;30.48;20.75;;;9.50;99.90;;;;;;5110776;27;20039;-68
2023/04/10 07:02:59;;;;;;;29.70;20.20;;;9.60;99.90;;;;;;5111899;27;20035;-69
2023/04/10 07:05:25;;;;;;;48.22;23.52;;;9.70;99.90;;;;;;5130148;27;20122;-67
2023/04/10 07:07:51;;;;;;;30.92;19.92;;;9.80;99.90;;;;;;5112138;27;20148;-66
2023/04/10 07:10:16;;;;;;;28.45;20.17;;;9.90;99.90;;;;;;5130529;27;20127;-67
2023/04/10 07:12:42;;;;;;;28.67;20.42;;;10.00;99.90;;;;;;5112166;27;20035;-68
2023/04/10 07:15:08;;;;;;;27.63;20.17;;;10.10;99.90;;;;;;5111389;27;20103;-65
2023/04/10 07:17:34;;;;;;;28.02;19.50;;;10.10;99.90;;;;;;5093285;27;20058;-66
2023/04/10 07:20:00;;;;;;;28.55;19.73;;;10.20;99.90;;;;;;5099500;27;20046;-64
2023/04/10 07:22:26;;;;;;;25.05;18.80;;;10.30;99.90;;;;;;5141127;27;20040;-67
2023/04/10 07:24:52;;;;;;;27.10;18.83;;;10.40;99.90;;;;;;5095112;27;20054;-65
2023/04/10 07:27:19;;;;;;;30.25;19.30;;;10.50;99.90;;;;;;5129592;27;20050;-65
2023/04/10 07:29:45;;;;;;;25.85;19.15;;;10.70;99.90;;;;;;5111478;27;20109;-67
2023/04/10 07:32:11;;;;;;;26.50;18.45;;;10.90;99.90;;;;;;5112375;27;20031;-65
2023/04/10 07:34:36;;;;;;;25.95;18.15;;;11.00;99.90;;;;;;5111677;27;20034;-69
2023/04/10 07:37:02;;;;;;;25.88;18.17;;;11.10;99.90;;;;;;5110661;27;20034;-68
2023/04/10 07:39:28;;;;;;;31.00;19.27;;;11.20;99.90;;;;;;5111106;27;20035;-67
2023/04/10 07:41:54;;;;;;;24.80;17.08;;;11.40;99.90;;;;;;5112266;27;20039;-66
2023/04/10 07:44:19;;;;;;;27.73;18.98;;;11.50;99.90;;;;;;5111289;27;20087;-65
2023/04/10 07:46:46;;;;;;;27.00;17.98;;;11.70;99.90;;;;;;5157939;27;20560;-63
2023/04/10 07:49:12;;;;;;;24.20;16.38;;;11.90;99.90;;;;;;5112205;27;20048;-68
2023/04/10 07:51:37;;;;;;;29.48;17.65;;;12.10;99.90;;;;;;5111921;27;20059;-67
2023/04/10 07:54:03;;;;;;;25.85;17.48;;;12.20;99.90;;;;;;5111086;27;20050;-68
2023/04/10 07:56:32;;;;;;;22.17;15.90;;;12.40;99.90;;;;;;5111155;27;20047;-67
2023/04/10 07:59:02;;;;;;;24.52;16.42;;;12.40;99.50;;;;;;5095840;27;20742;-64
2023/04/10 08:01:28;;;;;;;22.88;15.85;;;12.50;99.30;;;;;;5129998;27;20043;-68
2023/04/10 08:03:55;;;;;;;21.45;15.07;;;12.40;99.00;;;;;;5112147;28;20092;-65
2023/04/10 08:06:21;;;;;;;21.48;15.90;;;12.40;99.50;;;;;;5111774;27;20042;-64
2023/04/10 08:08:47;;;;;;;20.38;15.30;;;12.50;99.50;;;;;;5111686;28;20042;-69
2023/04/10 08:11:32;;;;;;;19.55;14.77;;;12.50;98.80;;;;;;5110101;27;20040;-66
2023/04/10 08:14:04;;;;;;;19.15;14.57;;;12.50;99.00;;;;;;5112533;27;20468;-68
2023/04/10 08:16:32;;;;;;;23.30;15.68;;;12.60;98.90;;;;;;5115762;27;20935;-69
2023/04/10 08:18:58;;;;;;;22.73;15.27;;;12.60;98.50;;;;;;5148758;27;20122;-69
2023/04/10 08:21:28;;;;;;;18.38;13.15;;;12.70;98.50;;;;;;5143320;27;20085;-65
2023/04/10 08:23:56;;;;;;;17.98;13.85;;;12.70;98.10;;;;;;5114035;27;20037;-68
2023/04/10 08:26:22;;;;;;;18.77;14.30;;;12.80;97.90;;;;;;5115028;27;20053;-65
2023/04/10 08:28:49;;;;;;;16.60;12.88;;;12.90;98.30;;;;;;5114188;27;20126;-67
2023/04/10 08:31:19;;;;;;;24.05;13.73;;;13.00;97.80;;;;;;5114291;27;20075;-67
2023/04/10 08:33:45;;;;;;;20.45;12.88;;;13.10;97.80;;;;;;5114163;27;20082;-66
2023/04/10 08:36:12;;;;;;;17.15;13.15;;;13.20;96.90;;;;;;5132907;27;20082;-67
2023/04/10 08:38:38;;;;;;;15.93;12.73;;;13.30;97.40;;;;;;5115379;27;20043;-66
2023/04/10 08:41:05;;;;;;;15.73;12.63;;;13.40;97.10;;;;;;5116296;27;20478;-65
2023/04/10 08:43:31;;;;;;;16.38;12.40;;;13.50;97.00;;;;;;5115641;27;20126;-68
2023/04/10 08:45:58;;;;;;;15.90;11.95;;;13.60;97.10;;;;;;5134193;27;20054;-67
2023/04/10 08:48:30;;;;;;;17.63;12.48;;;13.70;96.70;;;;;;5115591;27;20461;-65
2023/04/10 08:50:59;;;;;;;;;;;13.80;96.70;;;;;;5116346;27;20374;-64
2023/04/10 08:53:29;;;;;;;16.83;11.98;;;13.80;95.40;;;;;;5115454;27;19923;-66
2023/04/10 08:55:55;;;;;;;14.48;11.25;;;14.00;96.80;;;;;;5115567;27;20047;-65
2023/04/10 08:58:22;;;;;;;13.80;10.85;;;14.10;96.50;;;;;;5115388;27;20554;-66
2023/04/10 09:00:48;;;;;;;14.48;11.40;;;14.20;96.40;;;;;;5115774;27;20481;-65
2023/04/10 09:03:14;;;;;;;13.35;11.30;;;14.30;95.90;;;;;;5115231;27;20039;-65
2023/04/10 09:05:40;;;;;;;14.25;11.00;;;14.30;95.40;;;;;;5115224;27;20047;-65
2023/04/10 09:08:12;;;;;;;13.55;10.70;;;14.20;95.20;;;;;;5115091;27;20107;-65
2023/04/10 09:10:38;;;;;;;14.35;11.25;;;14.30;95.20;;;;;;5097509;27;20100;-67
2023/04/10 09:13:04;;;;;;;13.88;10.73;;;14.40;95.80;;;;;;5115061;27;20378;-67
2023/04/10 09:15:29;;;;;;;13.70;10.25;;;14.50;95.50;;;;;;5115035;27;20031;-65
2023/04/10 09:18:00;;;;;;;12.07;10.02;;;14.70;94.80;;;;;;5114981;27;20137;-65
2023/04/10 09:20:30;;;;;;;11.63;9.48;;;14.80;95.30;;;;;;5114906;27;20047;-67
2023/04/10 09:22:55;;;;;;;10.48;9.32;;;15.00;95.70;;;;;;5114547;27;20453;-68
2023/04/10 09:25:32;;;;;;;11.07;9.30;;;15.00;94.10;;;;;;5097776;27;20059;-66
2023/04/10 09:28:05;;;;;;;11.25;9.05;;;14.90;93.60;;;;;;5114618;27;20035;-65
2023/04/10 09:30:36;;;;;;;9.93;8.20;;;14.80;93.40;;;;;;5114758;27;20043;-67
2023/04/10 09:33:02;;;;;;;9.40;7.90;;;14.70;93.60;;;;;;5114899;27;20474;-65
2023/04/10 09:35:38;;;;;;;11.50;8.68;;;14.80;93.90;;;;;;5114589;27;20119;-68
2023/04/10 09:38:17;;;;;;;11.40;8.40;;;14.80;94.10;;;;;;5111771;27;20082;-67
2023/04/10 09:40:44;;;;;;;11.45;8.13;;;14.80;93.80;;;;;;5114570;27;20449;-67
2023/04/10 09:43:16;;;;;;;9.18;8.20;;;15.00;94.10;;;;;;5114761;27;20490;-66
2023/04/10 09:45:47;;;;;;;8.52;7.63;;;15.10;93.60;;;;;;5114683;27;20047;-66
2023/04/10 09:48:12;;;;;;;8.80;7.88;;;15.20;93.10;;;;;;5114311;27;20081;-67
2023/04/10 09:50:42;;;;;;;9.93;7.78;;;15.20;92.60;;;;;;5114457;27;20070;-65
2023/04/10 09:53:19;;;;;;;10.55;8.00;;;15.20;92.60;;;;;;5114024;27;20083;-67
2023/04/10 09:55:47;;;;;;;9.73;8.00;;;15.40;92.10;;;;;;5114297;27;20414;-67
2023/04/10 09:58:13;;;;;;;8.38;7.53;;;15.60;92.70;;;;;;5096818;27;20114;-67
2023/04/10 10:00:44;;;;;;;8.23;7.35;;;15.80;92.50;;;;;;5114057;27;20086;-67
2023/04/10 10:03:14;;;;;;;9.07;7.10;;;16.00;92.50;;;;;;5114114;27;20111;-68
2023/04/10 10:05:45;;;;;;;8.20;6.35;;;15.90;91.40;;;;;;5113814;27;20035;-68
2023/04/10 10:08:12;;;;;;;7.93;6.90;;;16.10;91.60;;;;;;5113851;27;20121;-66
2023/04/10 10:10:59;;;;;;;8.55;6.88;;;16.00;91.10;;;;;;5113867;27;20463;-63
2023/04/10 10:13:51;;;;;;;8.70;7.45;;;16.00;91.30;;;;;;5113784;27;20031;-66
2023/04/10 10:16:19;;;;;;;8.07;7.07;;;15.80;90.60;;;;;;5114127;27;20431;-64
2023/04/10 10:19:07;;;;;;;10.10;6.78;;;15.60;90.70;;;;;;5113887;27;20566;-66
2023/04/10 10:21:33;;;;;;;8.30;6.78;;;15.60;90.90;;;;;;5113695;27;20118;-70
2023/04/10 10:24:06;;;;;;;7.05;6.35;;;15.70;91.30;;;;;;5113460;27;20085;-64
2023/04/10 10:26:33;;;;;;;;;;;15.70;90.90;;;;;;5114006;27;20096;-67
2023/04/10 10:29:04;;;;;;;6.40;5.72;;;15.60;91.50;;;;;;5096339;27;19962;-70
2023/04/10 10:31:32;;;;;;;8.40;6.72;;;15.50;91.50;;;;;;5113502;27;20198;-66
2023/04/10 10:34:08;;;;;;;6.75;6.05;;;15.50;91.40;;;;;;5113306;27;20066;-68
2023/04/10 10:36:40;;;;;;;8.85;6.53;;;15.40;91.70;;;;;;5095972;27;20038;-68
2023/04/10 10:39:21;;;;;;;7.50;6.30;;;15.50;91.80;;;;;;5113220;27;20039;-67
2023/04/10 10:41:55;;;;;;;8.48;6.32;;;15.40;91.90;;;;;;5113239;27;20039;-66
2023/04/10 10:44:49;;;;;;;6.65;6.05;;;15.40;92.10;;;;;;5113508;27;20070;-65
2023/04/10 10:47:18;;;;;;;7.47;5.97;;;15.40;92.40;;;;;;5113050;27;20043;-69
2023/04/10 10:49:54;;;;;;;8.55;6.22;;;15.40;92.20;;;;;;5113330;27;20039;-69
2023/04/10 10:52:51;;;;;;;6.60;5.32;;;15.30;91.70;;;;;;5112707;27;20099;-64
2023/04/10 10:55:30;;;;;;;7.65;5.25;;;15.30;91.70;;;;;;5112332;27;20520;-67
2023/04/10 10:58:00;;;;;;;5.97;4.82;;;15.40;91.90;;;;;;5113079;27;20142;-66
2023/04/10 11:00:49;;;;;;;5.75;5.15;;;15.50;91.70;;;;;;5113139;27;20034;-67
2023/04/10 11:03:14;;;;;;;6.60;5.30;;;15.50;91.60;;;;;;5096029;27;20115;-67
2023/04/10 11:05:55;;;;;;;6.40;5.60;;;15.50;91.90;;;;;;5112954;27;20501;-65
2023/04/10 11:08:36;;;;;;;7.18;5.00;;;15.70;91.60;;;;;;5112150;27;20078;-68
2023/04/10 11:11:03;;;;;;;6.13;5.18;;;15.60;91.60;;;;;;5112955;27;20384;-66
2023/04/10 11:13:29;;;;;;;6.82;5.28;;;15.50;91.30;;;;;;5112731;27;20039;-68
2023/04/10 11:15:56;;;;;;;6.45;5.00;;;15.60;91.00;;;;;;5112907;27;20038;-64
2023/04/10 11:18:43;;;;;;;5.78;5.18;;;15.50;91.00;;;;;;5113165;27;20497;-68
2023/04/10 11:21:14;;;;;;;6.35;5.60;;;15.50;91.00;;;;;;5112553;27;20159;-68
2023/04/10 11:23:48;;;;;;;6.45;5.28;;;15.50;91.60;;;;;;5131154;27;20474;-68
2023/04/10 11:26:38;;;;;;;9.63;5.82;;;15.40;91.50;;;;;;5112496;27;20096;-68
2023/04/10 11:29:18;;;;;;;5.60;4.88;;;15.50;92.00;;;;;;5112221;27;20050;-67
2023/04/10 11:31:55;;;;;;;5.97;5.10;;;15.60;92.20;;;;;;5112549;27;20049;-66
2023/04/10 11:34:22;;;;;;;5.90;5.30;;;15.60;91.90;;;;;;5095485;27;20088;-65
2023/04/10 11:36:48;;;;;;;6.78;4.70;;;15.70;92.30;;;;;;5112627;27;20078;-67
2023/04/10 11:39:19;;;;;;;7.43;4.93;;;15.90;92.40;;;;;;5112573;27;20489;-66
2023/04/10 11:41:49;;;;;;;6.57;5.20;;;16.00;92.50;;;;;;5112818;27;20031;-65
2023/04/10 11:44:25;;;;;;;7.43;5.38;;;16.20;92.50;;;;;;5112630;27;20485;-68
2023/04/10 11:46:52;;;;;;;6.63;5.38;;;16.30;91.30;;;;;;5114214;27;20043;-68
2023/04/10 11:49:30;;;;;;;6.20;5.35;;;16.40;91.80;;;;;;5099202;27;20049;-66
2023/04/10 11:51:55;;;;;;;6.28;4.75;;;16.50;91.60;;;;;;5116645;27;20048;-67
2023/04/10 11:54:23;;;;;;;11.80;5.53;;;16.60;91.50;;;;;;5116411;27;20100;-70
2023/04/10 11:57:03;;;;;;;6.25;5.18;;;16.70;91.20;;;;;;5116553;27;20038;-67
2023/04/10 11:59:31;;;;;;;6.10;5.50;;;16.80;91.60;;;;;;5116605;27;20066;-66
2023/04/10 12:02:08;;;;;;;9.32;5.10;;;17.10;91.20;;;;;;5116806;27;20039;-67
2023/04/10 12:04:34;;;;;;;6.97;5.15;;;17.10;90.20;;;;;;5116287;27;20031;-69
2023/04/10 12:07:00;;;;;;;7.65;4.97;;;17.10;91.00;;;;;;5116549;27;20035;-66
2023/04/10 12:09:26;;;;;;;6.32;5.35;;;17.30;91.30;;;;;;5116132;27;20035;-67
2023/04/10 12:12:03;;;;;;;6.50;5.28;;;17.40;90.40;;;;;;5116054;27;20095;-69
2023/04/10 12:14:41;;;;;;;7.88;5.10;;;17.70;90.10;;;;;;5116088;27;20043;-66
2023/04/10 12:17:11;;;;;;;5.55;4.97;;;17.70;90.10;;;;;;5115998;27;20390;-66
2023/04/10 12:19:39;;;;;;;6.03;4.78;;;17.70;89.30;;;;;;5099272;27;20584;-67
2023/04/10 12:22:05;;;;;;;5.22;4.72;;;17.50;89.60;;;;;;5116652;27;20045;-69
2023/04/10 12:24:45;;;;;;;7.60;4.35;;;17.20;88.50;;;;;;5115956;27;20039;-68
2023/04/10 12:27:26;;;;;;;5.25;4.20;;;16.90;87.40;;;;;;5116140;27;20041;-67
2023/04/10 12:29:54;;;;;;;5.63;4.55;;;16.80;90.40;;;;;;5116033;27;20039;-67
2023/04/10 12:32:21;;;;;;;5.25;4.65;;;16.70;90.40;;;;;;5115676;27;20039;-66
2023/04/10 12:34:56;;;;;;;6.45;4.50;;;16.60;90.40;;;;;;5115996;27;20496;-66
2023/04/10 12:37:22;;;;;;;7.38;5.03;;;16.40;90.40;;;;;;5115443;27;20528;-66
2023/04/10 12:39:48;;;;;;;5.35;4.85;;;16.40;91.10;;;;;;5134003;27;20131;-65
2023/04/10 12:42:21;;;;;;;7.55;5.28;;;16.40;91.40;;;;;;5114216;27;20087;-65
2023/04/10 12:45:00;;;;;;;8.60;5.18;;;16.30;91.40;;;;;;5115712;27;20459;-67